sensor_id;sensor_type;location;lat;lon;timestamp;pressure;altitude;pressure_sealevel;temperature;humidity
37132;BME280;23035;50.032;21.978;2024-01-11T00:03:08;64387.91;;;-7.51;100.00
37132;BME280;23035;50.032;21.978;2024-01-11T00:08:14;64252.50;;;-8.89;100.00
37132;BME280;23035;50.032;21.978;2024-01-11T00:13:18;64346.53;;;-7.96;100.00
37132;BME280;23035;50.032;21.978;2024-01-11T00:18:22;64293.47;;;-8.42;100.00
37132;BME280;23035;50.032;21.978;2024-01-11T00:23:28;64357.72;;;-7.83;100.00
37132;BME280;23035;50.032;21.978;2024-01-11T00:28:32;64479.69;;;-6.65;100.00
37132;BME280;23035;50.032;21.978;2024-01-11T00:33:36;64413.38;;;-7.24;100.00
37132;BME280;23035;50.032;21.978;2024-01-11T00:38:42;64478.22;;;-6.64;100.00
37132;BME280;23035;50.032;21.978;2024-01-11T00:43:46;64554.22;;;-5.93;100.00
37132;BME280;23035;50.032;21.978;2024-01-11T00:48:50;64571.66;;;-5.77;100.00
37132;BME280;23035;50.032;21.978;2024-01-11T00:53:59;64508.25;;;-6.38;100.00
37132;BME280;23035;50.032;21.978;2024-01-11T00:59:03;64453.28;;;-6.90;100.00
37132;BME280;23035;50.032;21.978;2024-01-11T01:04:08;64390.44;;;-7.51;100.00
37132;BME280;23035;50.032;21.978;2024-01-11T01:09:13;64491.31;;;-6.54;100.00
37132;BME280;23035;50.032;21.978;2024-01-11T01:14:18;64481.28;;;-6.63;100.00
37132;BME280;23035;50.032;21.978;2024-01-11T01:19:22;64327.09;;;-8.12;100.00
37132;BME280;23035;50.032;21.978;2024-01-11T01:24:27;64283.47;;;-8.52;100.00
37132;BME280;23035;50.032;21.978;2024-01-11T01:29:31;64278.19;;;-8.57;100.00
37132;BME280;23035;50.032;21.978;2024-01-11T01:34:35;64326.84;;;-8.17;100.00
37132;BME280;23035;50.032;21.978;2024-01-11T01:39:41;64388.34;;;-7.53;100.00
37132;BME280;23035;50.032;21.978;2024-01-11T01:44:46;64498.19;;;-6.47;100.00
37132;BME280;23035;50.032;21.978;2024-01-11T01:49:50;64483.81;;;-6.63;100.00
37132;BME280;23035;50.032;21.978;2024-01-11T01:54:57;64472.31;;;-6.72;100.00
37132;BME280;23035;50.032;21.978;2024-01-11T02:00:04;64546.19;;;-6.03;100.00
37132;BME280;23035;50.032;21.978;2024-01-11T02:05:14;64541.53;;;-6.05;100.00
37132;BME280;23035;50.032;21.978;2024-01-11T02:10:20;64457.63;;;-6.84;100.00
37132;BME280;23035;50.032;21.978;2024-01-11T02:15:24;64404.16;;;-7.38;100.00
37132;BME280;23035;50.032;21.978;2024-01-11T02:20:29;64453.94;;;-6.87;100.00
37132;BME280;23035;50.032;21.978;2024-01-11T02:25:34;64537.44;;;-6.07;100.00
37132;BME280;23035;50.032;21.978;2024-01-11T02:30:39;64558.44;;;-5.89;100.00
37132;BME280;23035;50.032;21.978;2024-01-11T02:35:43;64437.56;;;-7.03;100.00
37132;BME280;23035;50.032;21.978;2024-01-11T02:40:51;64532.25;;;-6.10;100.00
37132;BME280;23035;50.032;21.978;2024-01-11T02:45:55;64439.25;;;-6.99;100.00
37132;BME280;23035;50.032;21.978;2024-01-11T02:51:01;64397.84;;;-7.44;100.00
37132;BME280;23035;50.032;21.978;2024-01-11T02:56:07;64453.41;;;-6.88;100.00
37132;BME280;23035;50.032;21.978;2024-01-11T03:01:11;64433.34;;;-7.07;100.00
37132;BME280;23035;50.032;21.978;2024-01-11T03:06:15;64427.00;;;-7.13;100.00
37132;BME280;23035;50.032;21.978;2024-01-11T03:11:25;64488.69;;;-6.56;100.00
37132;BME280;23035;50.032;21.978;2024-01-11T03:16:30;64590.69;;;-5.58;100.00
37132;BME280;23035;50.032;21.978;2024-01-11T03:21:34;64530.03;;;-6.14;100.00
37132;BME280;23035;50.032;21.978;2024-01-11T03:26:41;64399.53;;;-7.40;100.00
37132;BME280;23035;50.032;21.978;2024-01-11T03:31:45;64486.44;;;-6.61;100.00
37132;BME280;23035;50.032;21.978;2024-01-11T03:36:49;64436.38;;;-7.07;100.00
37132;BME280;23035;50.032;21.978;2024-01-11T03:41:55;64529.91;;;-6.17;100.00
37132;BME280;23035;50.032;21.978;2024-01-11T03:46:59;64547.66;;;-6.04;100.00
37132;BME280;23035;50.032;21.978;2024-01-11T03:52:04;64482.34;;;-6.62;100.00
37132;BME280;23035;50.032;21.978;2024-01-11T03:57:10;64463.44;;;-6.78;100.00
37132;BME280;23035;50.032;21.978;2024-01-11T04:02:14;64442.31;;;-6.99;100.00
37132;BME280;23035;50.032;21.978;2024-01-11T04:07:19;64544.94;;;-5.97;100.00
37132;BME280;23035;50.032;21.978;2024-01-11T04:12:24;64611.31;;;-5.38;100.00
37132;BME280;23035;50.032;21.978;2024-01-11T04:17:29;64620.72;;;-5.32;100.00
37132;BME280;23035;50.032;21.978;2024-01-11T04:22:33;64586.47;;;-5.62;100.00
37132;BME280;23035;50.032;21.978;2024-01-11T04:27:39;64655.75;;;-4.96;100.00
37132;BME280;23035;50.032;21.978;2024-01-11T04:32:43;64560.97;;;-5.89;100.00
37132;BME280;23035;50.032;21.978;2024-01-11T04:37:48;64599.91;;;-5.44;100.00
37132;BME280;23035;50.032;21.978;2024-01-11T04:42:53;64630.38;;;-5.20;100.00
37132;BME280;23035;50.032;21.978;2024-01-11T04:47:57;64563.97;;;-5.79;100.00
37132;BME280;23035;50.032;21.978;2024-01-11T04:53:01;64596.50;;;-5.53;100.00
37132;BME280;23035;50.032;21.978;2024-01-11T04:58:07;64594.41;;;-5.55;100.00
37132;BME280;23035;50.032;21.978;2024-01-11T05:03:11;64658.13;;;-4.88;100.00
37132;BME280;23035;50.032;21.978;2024-01-11T05:08:15;64642.53;;;-5.08;100.00
37132;BME280;23035;50.032;21.978;2024-01-11T05:13:20;64705.00;;;-4.48;96.83
37132;BME280;23035;50.032;21.978;2024-01-11T05:18:24;64594.94;;;-5.54;100.00
37132;BME280;23035;50.032;21.978;2024-01-11T05:23:28;64649.41;;;-5.02;100.00
37132;BME280;23035;50.032;21.978;2024-01-11T05:28:34;64669.13;;;-4.80;100.00
37132;BME280;23035;50.032;21.978;2024-01-11T05:33:38;64658.19;;;-4.98;100.00
37132;BME280;23035;50.032;21.978;2024-01-11T05:38:44;64686.03;;;-4.64;100.00
37132;BME280;23035;50.032;21.978;2024-01-11T05:43:52;64745.78;;;-4.09;97.07
37132;BME280;23035;50.032;21.978;2024-01-11T05:49:00;64746.94;;;-4.06;92.39
37132;BME280;23035;50.032;21.978;2024-01-11T05:54:08;64707.22;;;-4.44;100.00
37132;BME280;23035;50.032;21.978;2024-01-11T05:59:17;64752.13;;;-4.03;98.59
37132;BME280;23035;50.032;21.978;2024-01-11T06:04:24;64708.41;;;-4.40;100.00
37132;BME280;23035;50.032;21.978;2024-01-11T06:09:31;64634.28;;;-5.11;100.00
37132;BME280;23035;50.032;21.978;2024-01-11T06:14:40;64584.59;;;-5.59;100.00
37132;BME280;23035;50.032;21.978;2024-01-11T06:19:47;64617.13;;;-5.33;100.00
37132;BME280;23035;50.032;21.978;2024-01-11T06:24:53;64652.19;;;-4.97;100.00
37132;BME280;23035;50.032;21.978;2024-01-11T06:29:59;64676.22;;;-4.69;100.00
37132;BME280;23035;50.032;21.978;2024-01-11T06:35:03;64728.53;;;-4.21;100.00
37132;BME280;23035;50.032;21.978;2024-01-11T06:40:08;64739.13;;;-4.11;100.00
37132;BME280;23035;50.032;21.978;2024-01-11T06:45:13;64722.06;;;-4.29;100.00
37132;BME280;23035;50.032;21.978;2024-01-11T06:50:20;64772.47;;;-3.79;100.00
37132;BME280;23035;50.032;21.978;2024-01-11T06:55:40;64843.38;;;-3.13;100.00
37132;BME280;23035;50.032;21.978;2024-01-11T07:00:47;64809.97;;;-3.45;100.00
37132;BME280;23035;50.032;21.978;2024-01-11T07:05:52;64827.38;;;-3.31;100.00
37132;BME280;23035;50.032;21.978;2024-01-11T07:10:56;64808.81;;;-3.49;100.00
37132;BME280;23035;50.032;21.978;2024-01-11T07:16:02;64876.69;;;-2.83;100.00
37132;BME280;23035;50.032;21.978;2024-01-11T07:21:06;64881.44;;;-2.79;100.00
37132;BME280;23035;50.032;21.978;2024-01-11T07:26:12;64883.56;;;-2.77;100.00
37132;BME280;23035;50.032;21.978;2024-01-11T07:31:17;64906.59;;;-2.50;100.00
37132;BME280;23035;50.032;21.978;2024-01-11T07:36:21;64921.97;;;-2.35;100.00
37132;BME280;23035;50.032;21.978;2024-01-11T07:41:26;64900.75;;;-2.55;100.00
37132;BME280;23035;50.032;21.978;2024-01-11T07:46:32;64888.34;;;-2.72;99.90
37132;BME280;23035;50.032;21.978;2024-01-11T07:51:47;64860.47;;;-2.94;100.00
37132;BME280;23035;50.032;21.978;2024-01-11T07:56:52;64873.72;;;-2.81;98.70
37132;BME280;23035;50.032;21.978;2024-01-11T08:01:57;64890.69;;;-2.65;90.31
37132;BME280;23035;50.032;21.978;2024-01-11T08:07:01;64887.81;;;-2.73;90.60
37132;BME280;23035;50.032;21.978;2024-01-11T08:12:05;64894.59;;;-2.69;85.50
37132;BME280;23035;50.032;21.978;2024-01-11T08:17:11;64899.06;;;-2.60;86.33
37132;BME280;23035;50.032;21.978;2024-01-11T08:22:16;64881.00;;;-2.77;88.66
37132;BME280;23035;50.032;21.978;2024-01-11T08:27:20;64889.41;;;-2.71;87.57
37132;BME280;23035;50.032;21.978;2024-01-11T08:32:26;64874.84;;;-2.90;92.85
37132;BME280;23035;50.032;21.978;2024-01-11T08:37:34;64942.53;;;-2.18;85.54
37132;BME280;23035;50.032;21.978;2024-01-11T08:42:38;64992.00;;;-1.68;83.55
37132;BME280;23035;50.032;21.978;2024-01-11T08:47:45;64960.59;;;-2.00;82.98
37132;BME280;23035;50.032;21.978;2024-01-11T08:52:50;65028.09;;;-1.33;78.08
37132;BME280;23035;50.032;21.978;2024-01-11T08:57:54;65025.56;;;-1.33;80.52
37132;BME280;23035;50.032;21.978;2024-01-11T09:03:00;64981.91;;;-1.78;83.21
37132;BME280;23035;50.032;21.978;2024-01-11T09:08:06;64955.59;;;-2.10;83.39
37132;BME280;23035;50.032;21.978;2024-01-11T09:13:10;65017.91;;;-1.46;80.34
37132;BME280;23035;50.032;21.978;2024-01-11T09:18:18;64981.38;;;-1.78;84.01
37132;BME280;23035;50.032;21.978;2024-01-11T09:23:22;64990.31;;;-1.72;84.31
37132;BME280;23035;50.032;21.978;2024-01-11T09:28:26;65010.38;;;-1.55;83.17
37132;BME280;23035;50.032;21.978;2024-01-11T09:33:31;65014.41;;;-1.44;85.37
37132;BME280;23035;50.032;21.978;2024-01-11T09:38:36;65064.63;;;-1.01;81.77
37132;BME280;23035;50.032;21.978;2024-01-11T09:43:40;65049.34;;;-1.13;85.05
37132;BME280;23035;50.032;21.978;2024-01-11T09:48:47;65025.34;;;-1.38;84.65
37132;BME280;23035;50.032;21.978;2024-01-11T09:53:52;65012.38;;;-1.56;76.15
37132;BME280;23035;50.032;21.978;2024-01-11T09:58:58;65013.66;;;-1.50;78.11
37132;BME280;23035;50.032;21.978;2024-01-11T10:04:04;64955.28;;;-2.06;83.98
37132;BME280;23035;50.032;21.978;2024-01-11T10:09:08;64936.06;;;-2.26;87.88
37132;BME280;23035;50.032;21.978;2024-01-11T10:14:12;64940.53;;;-2.17;90.80
37132;BME280;23035;50.032;21.978;2024-01-11T10:19:18;65005.16;;;-1.58;88.29
37132;BME280;23035;50.032;21.978;2024-01-11T10:24:24;64969.94;;;-1.96;91.47
37132;BME280;23035;50.032;21.978;2024-01-11T10:29:30;64985.66;;;-1.74;90.88
37132;BME280;23035;50.032;21.978;2024-01-11T10:34:35;64930.88;;;-2.29;93.92
37132;BME280;23035;50.032;21.978;2024-01-11T10:39:42;64901.69;;;-2.57;98.54
37132;BME280;23035;50.032;21.978;2024-01-11T10:44:47;64936.63;;;-2.26;97.28
37132;BME280;23035;50.032;21.978;2024-01-11T10:49:54;64941.91;;;-2.21;99.26
37132;BME280;23035;50.032;21.978;2024-01-11T10:55:01;64896.31;;;-2.65;99.85
37132;BME280;23035;50.032;21.978;2024-01-11T11:00:06;64947.63;;;-2.18;100.00
37132;BME280;23035;50.032;21.978;2024-01-11T11:05:16;64914.44;;;-2.45;100.00
37132;BME280;23035;50.032;21.978;2024-01-11T11:10:22;64912.84;;;-2.46;98.68
37132;BME280;23035;50.032;21.978;2024-01-11T11:15:26;64935.75;;;-2.22;99.82
37132;BME280;23035;50.032;21.978;2024-01-11T11:20:32;64891.22;;;-2.65;100.00
37132;BME280;23035;50.032;21.978;2024-01-11T11:25:37;64951.66;;;-2.07;96.54
37132;BME280;23035;50.032;21.978;2024-01-11T11:30:42;64909.44;;;-2.54;100.00
37132;BME280;23035;50.032;21.978;2024-01-11T11:35:49;64929.81;;;-2.30;98.68
37132;BME280;23035;50.032;21.978;2024-01-11T11:40:56;64852.81;;;-3.06;100.00
37132;BME280;23035;50.032;21.978;2024-01-11T11:46:00;64847.72;;;-3.06;100.00
37132;BME280;23035;50.032;21.978;2024-01-11T11:51:12;64867.13;;;-2.93;100.00
37132;BME280;23035;50.032;21.978;2024-01-11T11:56:21;64917.50;;;-2.44;100.00
37132;BME280;23035;50.032;21.978;2024-01-11T12:01:26;64846.13;;;-3.08;100.00
37132;BME280;23035;50.032;21.978;2024-01-11T12:06:32;64849.72;;;-3.07;100.00
37132;BME280;23035;50.032;21.978;2024-01-11T12:11:36;64830.25;;;-3.23;100.00
37132;BME280;23035;50.032;21.978;2024-01-11T12:16:40;64799.81;;;-3.57;100.00
37132;BME280;23035;50.032;21.978;2024-01-11T12:21:45;64897.16;;;-2.56;100.00
37132;BME280;23035;50.032;21.978;2024-01-11T12:26:49;64885.28;;;-2.73;100.00
37132;BME280;23035;50.032;21.978;2024-01-11T12:31:56;64936.81;;;-2.21;100.00
37132;BME280;23035;50.032;21.978;2024-01-11T12:37:03;64905.94;;;-2.53;100.00
37132;BME280;23035;50.032;21.978;2024-01-11T12:42:09;64839.66;;;-3.17;100.00
37132;BME280;23035;50.032;21.978;2024-01-11T12:47:13;64895.97;;;-2.60;100.00
37132;BME280;23035;50.032;21.978;2024-01-11T12:52:19;64832.78;;;-3.23;100.00
37132;BME280;23035;50.032;21.978;2024-01-11T12:57:23;64857.78;;;-2.97;100.00
37132;BME280;23035;50.032;21.978;2024-01-11T13:02:27;64886.84;;;-2.71;100.00
37132;BME280;23035;50.032;21.978;2024-01-11T13:07:33;64858.13;;;-3.01;100.00
37132;BME280;23035;50.032;21.978;2024-01-11T13:12:37;64863.94;;;-2.96;100.00
37132;BME280;23035;50.032;21.978;2024-01-11T13:17:41;64885.78;;;-2.72;100.00
37132;BME280;23035;50.032;21.978;2024-01-11T13:22:46;64886.75;;;-2.74;100.00
37132;BME280;23035;50.032;21.978;2024-01-11T13:27:51;64904.69;;;-2.47;100.00
37132;BME280;23035;50.032;21.978;2024-01-11T13:32:55;64837.44;;;-3.21;100.00
37132;BME280;23035;50.032;21.978;2024-01-11T13:38:01;64854.63;;;-3.00;100.00
37132;BME280;23035;50.032;21.978;2024-01-11T13:43:05;64828.00;;;-3.28;100.00
37132;BME280;23035;50.032;21.978;2024-01-11T13:48:10;64793.47;;;-3.63;100.00
37132;BME280;23035;50.032;21.978;2024-01-11T13:53:16;64816.97;;;-3.36;100.00
37132;BME280;23035;50.032;21.978;2024-01-11T13:58:22;64871.91;;;-2.88;100.00
37132;BME280;23035;50.032;21.978;2024-01-11T14:03:28;64859.28;;;-2.98;100.00
37132;BME280;23035;50.032;21.978;2024-01-11T14:08:34;64784.31;;;-3.75;100.00
37132;BME280;23035;50.032;21.978;2024-01-11T14:13:39;64782.88;;;-3.73;100.00
37132;BME280;23035;50.032;21.978;2024-01-11T14:18:43;64813.59;;;-3.44;100.00
37132;BME280;23035;50.032;21.978;2024-01-11T14:23:49;64818.47;;;-3.37;100.00
37132;BME280;23035;50.032;21.978;2024-01-11T14:28:54;64818.47;;;-3.37;100.00
37132;BME280;23035;50.032;21.978;2024-01-11T14:33:58;64690.72;;;-4.62;100.00
37132;BME280;23035;50.032;21.978;2024-01-11T14:39:04;64721.53;;;-4.30;100.00
37132;BME280;23035;50.032;21.978;2024-01-11T14:44:08;64711.88;;;-4.42;100.00
37132;BME280;23035;50.032;21.978;2024-01-11T14:49:13;64718.22;;;-4.36;100.00
37132;BME280;23035;50.032;21.978;2024-01-11T14:54:18;64738.34;;;-4.16;100.00
37132;BME280;23035;50.032;21.978;2024-01-11T14:59:23;64679.19;;;-4.71;100.00
37132;BME280;23035;50.032;21.978;2024-01-11T15:04:27;64700.22;;;-4.53;100.00
37132;BME280;23035;50.032;21.978;2024-01-11T15:09:33;64749.06;;;-4.04;100.00
37132;BME280;23035;50.032;21.978;2024-01-11T15:14:41;64713.16;;;-4.36;100.00
37132;BME280;23035;50.032;21.978;2024-01-11T15:19:45;64652.72;;;-4.96;100.00
37132;BME280;23035;50.032;21.978;2024-01-11T15:24:51;64647.28;;;-5.04;100.00
37132;BME280;23035;50.032;21.978;2024-01-11T15:29:56;64621.91;;;-5.28;100.00
37132;BME280;23035;50.032;21.978;2024-01-11T15:35:00;64644.34;;;-5.02;100.00
37132;BME280;23035;50.032;21.978;2024-01-11T15:40:08;64660.00;;;-4.92;100.00
37132;BME280;23035;50.032;21.978;2024-01-11T15:45:13;64636.94;;;-5.09;100.00
37132;BME280;23035;50.032;21.978;2024-01-11T15:50:17;64640.00;;;-5.08;100.00
37132;BME280;23035;50.032;21.978;2024-01-11T15:55:23;64665.28;;;-4.86;100.00
37132;BME280;23035;50.032;21.978;2024-01-11T16:00:28;64685.94;;;-4.67;100.00
37132;BME280;23035;50.032;21.978;2024-01-11T16:05:35;64709.34;;;-4.42;100.00
37132;BME280;23035;50.032;21.978;2024-01-11T16:10:44;64642.00;;;-5.09;100.00
37132;BME280;23035;50.032;21.978;2024-01-11T16:15:49;64696.63;;;-4.54;100.00
37132;BME280;23035;50.032;21.978;2024-01-11T16:20:58;64680.97;;;-4.64;100.00
37132;BME280;23035;50.032;21.978;2024-01-11T16:26:05;64719.81;;;-4.34;100.00
37132;BME280;23035;50.032;21.978;2024-01-11T16:31:10;64693.56;;;-4.54;100.00
37132;BME280;23035;50.032;21.978;2024-01-11T16:36:14;64667.41;;;-4.84;100.00
37132;BME280;23035;50.032;21.978;2024-01-11T16:41:21;64695.16;;;-4.53;100.00
37132;BME280;23035;50.032;21.978;2024-01-11T16:46:27;64688.19;;;-4.62;100.00
37132;BME280;23035;50.032;21.978;2024-01-11T16:51:32;64681.28;;;-4.69;100.00
37132;BME280;23035;50.032;21.978;2024-01-11T16:56:37;64672.41;;;-4.75;100.00
37132;BME280;23035;50.032;21.978;2024-01-11T17:01:43;64670.81;;;-4.76;100.00
37132;BME280;23035;50.032;21.978;2024-01-11T17:06:48;64727.75;;;-4.26;100.00
37132;BME280;23035;50.032;21.978;2024-01-11T17:11:54;64741.53;;;-4.13;100.00
37132;BME280;23035;50.032;21.978;2024-01-11T17:16:58;64725.22;;;-4.26;100.00
37132;BME280;23035;50.032;21.978;2024-01-11T17:22:06;64674.28;;;-4.78;100.00
37132;BME280;23035;50.032;21.978;2024-01-11T17:27:11;64716.13;;;-4.38;100.00
37132;BME280;23035;50.032;21.978;2024-01-11T17:32:17;64664.47;;;-4.82;100.00
37132;BME280;23035;50.032;21.978;2024-01-11T17:37:22;64691.13;;;-4.64;100.00
37132;BME280;23035;50.032;21.978;2024-01-11T17:42:30;64675.34;;;-4.77;100.00
37132;BME280;23035;50.032;21.978;2024-01-11T17:47:35;64715.59;;;-4.38;100.00
37132;BME280;23035;50.032;21.978;2024-01-11T17:52:39;64684.34;;;-4.68;100.00
37132;BME280;23035;50.032;21.978;2024-01-11T17:57:46;64699.16;;;-4.54;100.00
37132;BME280;23035;50.032;21.978;2024-01-11T18:02:51;64689.09;;;-4.64;100.00
37132;BME280;23035;50.032;21.978;2024-01-11T18:07:56;64688.56;;;-4.64;100.00
37132;BME280;23035;50.032;21.978;2024-01-11T18:13:02;64782.56;;;-3.69;100.00
37132;BME280;23035;50.032;21.978;2024-01-11T18:18:06;64758.72;;;-3.92;100.00
37132;BME280;23035;50.032;21.978;2024-01-11T18:23:11;64730.94;;;-4.23;100.00
37132;BME280;23035;50.032;21.978;2024-01-11T18:28:16;64679.06;;;-4.73;100.00
37132;BME280;23035;50.032;21.978;2024-01-11T18:33:21;64670.72;;;-4.79;100.00
37132;BME280;23035;50.032;21.978;2024-01-11T18:38:29;64752.78;;;-4.00;100.00
37132;BME280;23035;50.032;21.978;2024-01-11T18:43:36;64780.31;;;-3.73;100.00
37132;BME280;23035;50.032;21.978;2024-01-11T18:48:40;64722.47;;;-4.31;100.00
37132;BME280;23035;50.032;21.978;2024-01-11T18:53:45;64760.06;;;-3.95;100.00
37132;BME280;23035;50.032;21.978;2024-01-11T18:58:50;64705.09;;;-4.46;100.00
37132;BME280;23035;50.032;21.978;2024-01-11T19:03:54;64723.22;;;-4.26;100.00
37132;BME280;23035;50.032;21.978;2024-01-11T19:08:59;64780.84;;;-3.73;100.00
37132;BME280;23035;50.032;21.978;2024-01-11T19:14:04;64767.50;;;-3.88;100.00
37132;BME280;23035;50.032;21.978;2024-01-11T19:19:11;64728.94;;;-4.23;100.00
37132;BME280;23035;50.032;21.978;2024-01-11T19:24:15;64727.22;;;-4.27;100.00
37132;BME280;23035;50.032;21.978;2024-01-11T19:29:21;64743.34;;;-4.07;100.00
37132;BME280;23035;50.032;21.978;2024-01-11T19:34:26;64818.88;;;-3.39;100.00
37132;BME280;23035;50.032;21.978;2024-01-11T19:39:30;64799.69;;;-3.60;100.00
37132;BME280;23035;50.032;21.978;2024-01-11T19:44:40;64821.66;;;-3.34;100.00
37132;BME280;23035;50.032;21.978;2024-01-11T19:49:44;64817.31;;;-3.40;100.00
37132;BME280;23035;50.032;21.978;2024-01-11T19:54:48;64782.22;;;-3.77;100.00
37132;BME280;23035;50.032;21.978;2024-01-11T19:59:54;64788.38;;;-3.63;100.00
37132;BME280;23035;50.032;21.978;2024-01-11T20:05:01;64802.34;;;-3.57;100.00
37132;BME280;23035;50.032;21.978;2024-01-11T20:10:05;64771.94;;;-3.79;100.00
37132;BME280;23035;50.032;21.978;2024-01-11T20:15:11;64836.38;;;-3.22;100.00
37132;BME280;23035;50.032;21.978;2024-01-11T20:20:16;64844.34;;;-3.14;100.00
37132;BME280;23035;50.032;21.978;2024-01-11T20:25:20;64769.72;;;-3.84;100.00
37132;BME280;23035;50.032;21.978;2024-01-11T20:30:25;64809.56;;;-3.43;100.00
37132;BME280;23035;50.032;21.978;2024-01-11T20:35:31;64836.38;;;-3.22;100.00
37132;BME280;23035;50.032;21.978;2024-01-11T20:40:35;64842.31;;;-3.14;100.00
37132;BME280;23035;50.032;21.978;2024-01-11T20:45:41;64884.09;;;-2.76;100.00
37132;BME280;23035;50.032;21.978;2024-01-11T20:50:46;64839.66;;;-3.17;100.00
37132;BME280;23035;50.032;21.978;2024-01-11T20:55:51;64780.31;;;-3.73;100.00
37132;BME280;23035;50.032;21.978;2024-01-11T21:00:59;64815.19;;;-3.42;100.00
37132;BME280;23035;50.032;21.978;2024-01-11T21:06:03;64807.44;;;-3.45;100.00
37132;BME280;23035;50.032;21.978;2024-01-11T21:11:09;64865.13;;;-2.92;100.00
37132;BME280;23035;50.032;21.978;2024-01-11T21:16:15;64830.78;;;-3.23;100.00
37132;BME280;23035;50.032;21.978;2024-01-11T21:21:19;64881.97;;;-2.78;100.00
37132;BME280;23035;50.032;21.978;2024-01-11T21:26:26;64839.03;;;-3.20;100.00
37132;BME280;23035;50.032;21.978;2024-01-11T21:31:31;64810.50;;;-3.44;100.00
37132;BME280;23035;50.032;21.978;2024-01-11T21:36:36;64837.53;;;-3.19;100.00
37132;BME280;23035;50.032;21.978;2024-01-11T21:41:40;64873.72;;;-2.81;100.00
37132;BME280;23035;50.032;21.978;2024-01-11T21:46:45;64891.22;;;-2.65;100.00
37132;BME280;23035;50.032;21.978;2024-01-11T21:51:50;64906.81;;;-2.45;100.00
37132;BME280;23035;50.032;21.978;2024-01-11T21:56:54;64830.47;;;-3.18;100.00
37132;BME280;23035;50.032;21.978;2024-01-11T22:02:02;64874.97;;;-2.88;100.00
37132;BME280;23035;50.032;21.978;2024-01-11T22:07:08;64896.31;;;-2.65;100.00
37132;BME280;23035;50.032;21.978;2024-01-11T22:12:14;64935.00;;;-2.27;100.00
37132;BME280;23035;50.032;21.978;2024-01-11T22:17:22;64924.63;;;-2.33;100.00
37132;BME280;23035;50.032;21.978;2024-01-11T22:22:27;64962.41;;;-1.94;100.00
37132;BME280;23035;50.032;21.978;2024-01-11T22:27:31;64942.13;;;-2.16;100.00
37132;BME280;23035;50.032;21.978;2024-01-11T22:32:39;64900.53;;;-2.61;100.00
37132;BME280;23035;50.032;21.978;2024-01-11T22:37:44;64930.88;;;-2.29;100.00
37132;BME280;23035;50.032;21.978;2024-01-11T22:42:48;64924.53;;;-2.35;100.00
37132;BME280;23035;50.032;21.978;2024-01-11T22:47:53;64909.13;;;-2.50;100.00
37132;BME280;23035;50.032;21.978;2024-01-11T22:52:57;64961.13;;;-2.00;100.00
37132;BME280;23035;50.032;21.978;2024-01-11T22:58:02;64920.69;;;-2.41;100.00
37132;BME280;23035;50.032;21.978;2024-01-11T23:03:08;64966.53;;;-1.92;100.00
37132;BME280;23035;50.032;21.978;2024-01-11T23:08:14;64889.09;;;-2.67;100.00
37132;BME280;23035;50.032;21.978;2024-01-11T23:13:18;64907.44;;;-2.54;100.00
37132;BME280;23035;50.032;21.978;2024-01-11T23:18:23;64940.84;;;-2.22;100.00
37132;BME280;23035;50.032;21.978;2024-01-11T23:23:28;64939.78;;;-2.23;100.00
37132;BME280;23035;50.032;21.978;2024-01-11T23:28:32;64958.38;;;-2.05;100.00
37132;BME280;23035;50.032;21.978;2024-01-11T23:33:38;64977.56;;;-1.84;100.00
37132;BME280;23035;50.032;21.978;2024-01-11T23:38:43;65006.78;;;-1.56;100.00
37132;BME280;23035;50.032;21.978;2024-01-11T23:43:47;64988.09;;;-1.77;100.00
37132;BME280;23035;50.032;21.978;2024-01-11T23:48:53;64994.44;;;-1.70;100.00
37132;BME280;23035;50.032;21.978;2024-01-11T23:53:57;64933.41;;;-2.29;100.00
37132;BME280;23035;50.032;21.978;2024-01-11T23:59:01;64876.34;;;-2.79;100.00
